Time;durP1;ratioP1;P1;durP2;ratioP2;P2;SDS_P1;SDS_P2;PMS_P1;PMS_P2;Temp;Humidity;BMP_temperature;BMP_pressure;BME280_temperature;BME280_humidity;BME280_pressure;Samples;Min_cycle;Max_cycle;Signal;HPM_P1;HPM_P2
2023/02/19 00:00:07;;;;;;;3.55;2.30;;;;;;;9.93;69.71;96693.41;5048368;28;20052;-74
2023/02/19 00:02:34;;;;;;;3.60;2.05;;;;;;;9.94;69.64;96692.31;5049279;28;20053;-73
2023/02/19 00:05:02;;;;;;;4.18;2.30;;;;;;;9.86;69.71;96688.38;5049176;28;20053;-73
2023/02/19 00:07:28;;;;;;;5.80;2.95;;;;;;;9.82;70.08;96681.97;5054763;28;20052;-73
2023/02/19 00:09:55;;;;;;;5.38;2.50;;;;;;;9.84;70.25;96687.09;5055760;28;20415;-73
2023/02/19 00:12:21;;;;;;;4.63;2.20;;;;;;;9.80;70.57;96678.72;5055329;28;20076;-73
2023/02/19 00:14:48;;;;;;;3.78;2.42;;;;;;;9.80;70.30;96678.72;5047783;28;20041;-73
2023/02/19 00:17:14;;;;;;;4.70;2.85;;;;;;;9.80;70.26;96676.00;5055261;28;20041;-74
2023/02/19 00:19:41;;;;;;;3.45;1.80;;;;;;;9.78;70.70;96686.38;5055348;28;20044;-73
2023/02/19 00:22:08;;;;;;;3.80;2.30;;;;;;;9.74;71.17;96684.56;5055261;28;20056;-74
2023/02/19 00:24:35;;;;;;;5.10;2.13;;;;;;;9.73;71.31;96685.69;5055661;28;20060;-73
2023/02/19 00:27:01;;;;;;;7.40;2.70;;;;;;;9.70;71.21;96684.38;5056080;28;20048;-72
2023/02/19 00:29:28;;;;;;;3.80;2.47;;;;;;;9.70;71.29;96668.06;5055240;28;20044;-73
2023/02/19 00:31:54;;;;;;;4.13;2.20;;;;;;;9.66;71.54;96670.59;5055233;28;20504;-73
2023/02/19 00:34:21;;;;;;;6.07;2.10;;;;;;;9.65;72.00;96666.25;5055216;28;20045;-73
2023/02/19 00:36:47;;;;;;;6.13;2.70;;;;;;;9.64;72.29;96664.63;5055926;28;20044;-73
2023/02/19 00:39:17;;;;;;;3.50;2.38;;;;;;;9.63;71.87;96660.31;5055459;28;20052;-73
2023/02/19 00:41:44;;;;;;;3.08;2.10;;;;;;;9.66;72.16;96657.00;5055873;28;20536;-73
2023/02/19 00:44:12;;;;;;;3.35;2.40;;;;;;;9.65;72.31;96652.66;5055092;28;20091;-74
2023/02/19 00:46:40;;;;;;;4.50;2.50;;;;;;;9.62;72.49;96660.63;5055747;28;20068;-73
2023/02/19 00:49:08;;;;;;;5.45;2.40;;;;;;;9.59;72.55;96659.31;5055442;28;20045;-74
2023/02/19 00:51:37;;;;;;;4.13;2.40;;;;;;;9.58;72.91;96651.47;5055429;28;20052;-73
2023/02/19 00:54:04;;;;;;;3.85;2.20;;;;;;;9.58;72.91;96657.69;5055027;28;20052;-74
2023/02/19 00:56:33;;;;;;;3.53;2.13;;;;;;;9.54;73.31;96650.47;5055620;28;20049;-72
2023/02/19 00:59:00;;;;;;;3.00;2.10;;;;;;;9.54;73.34;96659.41;5057633;28;20049;-73
2023/02/19 01:01:26;;;;;;;3.38;2.00;;;;;;;9.59;73.22;96639.47;5058050;28;20115;-73
2023/02/19 01:03:52;;;;;;;3.70;1.95;;;;;;;9.55;73.30;96638.47;5057735;28;20036;-73
2023/02/19 01:06:20;;;;;;;3.22;2.20;;;;;;;9.58;73.35;96637.88;5058623;28;20519;-73
2023/02/19 01:08:47;;;;;;;4.53;2.13;;;;;;;9.55;73.56;96639.31;5056519;28;20064;-73
2023/02/19 01:11:13;;;;;;;4.40;2.25;;;;;;;9.57;73.38;96641.69;5055213;28;20045;-73
2023/02/19 01:13:42;;;;;;;5.85;3.10;;;;;;;9.57;73.17;96644.44;5055195;28;20053;-73
2023/02/19 01:16:12;;;;;;;4.30;2.30;;;;;;;9.56;73.32;96635.47;5055010;28;20090;-73
2023/02/19 01:18:39;;;;;;;4.63;2.42;;;;;;;9.55;73.19;96633.88;5052674;28;20041;-73
2023/02/19 01:21:07;;;;;;;3.70;2.28;;;;;;;9.51;73.76;96627.41;5051474;28;20106;-74
2023/02/19 01:23:33;;;;;;;2.65;2.13;;;;;;;9.51;73.82;96630.13;5052700;28;20079;-73
2023/02/19 01:26:00;;;;;;;3.90;2.20;;;;;;;9.55;73.67;96627.59;5052361;28;20044;-73
2023/02/19 01:28:26;;;;;;;2.92;1.92;;;;;;;9.56;73.28;96635.47;5052113;28;20052;-73
2023/02/19 01:30:54;;;;;;;3.08;1.95;;;;;;;9.57;73.24;96615.31;5044757;28;20385;-73
2023/02/19 01:33:21;;;;;;;4.85;2.25;;;;;;;9.60;73.47;96619.31;5052240;28;20053;-73
2023/02/19 01:35:47;;;;;;;3.78;2.22;;;;;;;9.58;73.45;96614.19;5054166;28;20057;-73
2023/02/19 01:38:14;;;;;;;3.67;2.20;;;;;;;9.57;73.15;96612.59;5054160;28;20391;-73
2023/02/19 01:40:40;;;;;;;4.80;2.30;;;;;;;9.57;73.24;96611.81;5052215;28;20068;-73
2023/02/19 01:43:14;;;;;;;4.38;2.85;;;;;;;9.56;73.20;96608.28;5051230;28;20052;-74
2023/02/19 01:45:43;;;;;;;3.88;2.17;;;;;;;9.55;73.56;96595.81;5054045;28;20052;-73
2023/02/19 01:48:14;;;;;;;3.53;2.22;;;;;;;9.57;73.62;96596.28;5055468;28;20136;-73
2023/02/19 01:50:45;;;;;;;4.18;2.33;;;;;;;9.53;73.54;96592.56;5055613;28;20045;-73
2023/02/19 01:53:14;;;;;;;3.58;2.20;;;;;;;9.55;73.55;96590.38;5053278;28;20056;-74
2023/02/19 01:55:42;;;;;;;3.72;2.08;;;;;;;9.50;74.25;96587.75;5054894;28;20063;-73
2023/02/19 01:58:10;;;;;;;4.22;2.20;;;;;;;9.47;74.44;96591.06;5053921;28;20041;-73
2023/02/19 02:00:37;;;;;;;4.93;2.38;;;;;;;9.35;75.71;96588.06;5052470;28;20626;-73
2023/02/19 02:03:04;;;;;;;4.53;2.47;;;;;;;9.17;77.55;96578.13;5051686;28;20053;-74
2023/02/19 02:05:56;;;;;;;3.95;2.42;;;;;;;9.01;79.00;96586.56;5051647;28;20052;-73
2023/02/19 02:11:10;;;;;;;3.97;2.40;;;;;;;9.03;78.56;96568.09;5032787;28;20076;-73
2023/02/19 02:13:39;;;;;;;3.67;2.47;;;;;;;9.11;77.61;96564.63;5051483;28;20048;-73
2023/02/19 02:16:20;;;;;;;4.55;2.50;;;;;;;9.13;77.52;96567.03;5050915;28;20045;-74
2023/02/19 02:18:59;;;;;;;4.85;2.60;;;;;;;9.11;77.46;96563.84;5051511;28;20040;-74
2023/02/19 02:21:50;;;;;;;3.03;2.22;;;;;;;9.05;78.78;96560.44;5050831;28;20048;-73
2023/02/19 02:24:49;;;;;;;3.97;1.95;;;;;;;8.97;79.71;96563.84;5050970;28;20099;-73
2023/02/19 02:27:40;;;;;;;3.47;2.58;;;;;;;8.91;80.06;96570.47;5050723;28;20052;-73
2023/02/19 02:30:42;;;;;;;5.03;2.75;;;;;;;9.01;78.74;96553.97;5049512;28;20507;-73
2023/02/19 02:33:19;;;;;;;4.50;2.45;;;;;;;9.04;78.33;96547.97;5050453;28;20049;-74
2023/02/19 02:35:49;;;;;;;4.65;2.50;;;;;;;9.08;78.36;96550.84;5050649;28;20052;-73
2023/02/19 02:38:20;;;;;;;4.00;2.28;;;;;;;9.07;78.27;96557.41;5050599;28;20045;-73
2023/02/19 02:40:47;;;;;;;6.93;2.63;;;;;;;9.03;78.32;96550.94;5051066;28;20055;-73
2023/02/19 02:43:14;;;;;;;4.38;2.47;;;;;;;8.97;79.35;96549.44;5050711;28;20455;-74
2023/02/19 02:45:42;;;;;;;4.13;2.15;;;;;;;9.00;78.13;96546.94;5050833;28;20053;-73
2023/02/19 02:48:16;;;;;;;5.57;2.35;;;;;;;9.04;78.25;96537.09;5050325;28;20052;-74
2023/02/19 02:50:48;;;;;;;4.38;2.33;;;;;;;9.04;78.48;96537.09;5050758;28;20500;-73
2023/02/19 02:56:05;;;;;;;4.15;2.42;;;;;;;8.85;80.05;96528.25;5050501;28;20068;-73
2023/02/19 02:58:33;;;;;;;3.55;2.25;;;;;;;8.82;79.99;96517.97;5050477;28;20400;-73
2023/02/19 03:03:57;;;;;;;4.25;2.58;;;;;;;8.77;80.95;96515.34;5050210;28;20522;-72
2023/02/19 03:06:27;;;;;;;4.65;1.77;;;;;;;8.80;80.43;96503.91;5049647;28;20041;-73
2023/02/19 03:08:58;;;;;;;6.00;2.60;;;;;;;8.96;79.89;96517.97;5050475;28;20045;-73
2023/02/19 03:19:52;;;;;;;8.15;2.42;;;;;;;8.57;82.82;96501.09;5050469;28;20179;-74
2023/02/19 03:22:24;;;;;;;4.63;2.40;;;;;;;8.56;83.37;96510.34;5049873;28;20049;-72
2023/02/19 03:27:42;;;;;;;3.97;2.63;;;;;;;8.54;83.98;96507.13;5050563;28;20051;-73
2023/02/19 03:30:12;;;;;;;4.38;2.65;;;;;;;8.50;83.74;96497.97;5049693;28;20067;-73
2023/02/19 03:32:46;;;;;;;4.00;2.38;;;;;;;8.55;83.39;96506.00;5050102;28;20045;-73
2023/02/19 03:35:14;;;;;;;;;;;;;;;8.63;83.15;96493.66;5049784;28;20056;-73
2023/02/19 03:37:44;;;;;;;4.00;2.72;;;;;;;8.60;83.38;96489.63;5050118;28;19920;-73
2023/02/19 03:40:11;;;;;;;6.72;2.83;;;;;;;8.58;84.33;96502.69;5049777;28;20045;-74
2023/02/19 03:42:43;;;;;;;6.30;2.95;;;;;;;8.60;84.63;96499.69;5049847;28;20045;-73
2023/02/19 03:45:27;;;;;;;5.87;3.10;;;;;;;8.63;84.01;96490.94;5049505;28;20052;-73
2023/02/19 03:48:07;;;;;;;5.68;2.60;;;;;;;8.57;85.42;96495.66;5050052;28;20049;-73
2023/02/19 03:50:41;;;;;;;4.97;2.65;;;;;;;8.52;85.87;96498.50;5049887;28;20187;-73
2023/02/19 03:53:18;;;;;;;6.80;3.75;;;;;;;8.51;86.44;96502.31;5049036;28;20049;-73
2023/02/19 03:55:51;;;;;;;4.82;2.78;;;;;;;8.44;87.49;96495.66;5049655;28;20124;-73
2023/02/19 03:58:24;;;;;;;6.45;3.33;;;;;;;8.28;89.81;96497.81;5049818;28;20451;-73
2023/02/19 04:00:56;;;;;;;5.82;3.28;;;;;;;8.11;91.61;96495.69;5049951;28;20638;-73
2023/02/19 04:03:29;;;;;;;4.80;3.05;;;;;;;8.01;93.23;96498.56;5048779;28;20055;-73
2023/02/19 04:06:01;;;;;;;4.47;2.90;;;;;;;7.94;93.99;96515.25;5049484;28;20056;-73
2023/02/19 04:08:28;;;;;;;6.28;3.30;;;;;;;7.93;93.90;96501.97;5049261;28;20048;-73
2023/02/19 04:10:55;;;;;;;6.05;3.42;;;;;;;7.84;94.95;96504.56;5049128;28;20052;-73
2023/02/19 04:13:26;;;;;;;4.88;3.10;;;;;;;7.87;94.47;96503.94;5048584;28;20060;-73
2023/02/19 04:15:56;;;;;;;6.00;3.40;;;;;;;7.94;93.50;96493.53;5049667;28;20056;-72
2023/02/19 04:18:29;;;;;;;5.05;3.13;;;;;;;7.91;93.58;96496.03;5049100;28;20052;-72
2023/02/19 04:20:57;;;;;;;9.00;3.40;;;;;;;8.00;92.37;96503.19;5049558;28;20500;-73
2023/02/19 04:23:29;;;;;;;5.50;3.30;;;;;;;8.01;92.29;96504.00;5049076;28;20048;-72
2023/02/19 04:25:59;;;;;;;6.22;3.40;;;;;;;8.02;91.97;96495.56;5049370;28;20106;-73
2023/02/19 04:28:26;;;;;;;4.78;3.13;;;;;;;8.06;91.18;96496.56;5048837;28;20041;-72
2023/02/19 04:30:52;;;;;;;4.95;3.10;;;;;;;8.02;91.45;96500.97;5049668;28;20049;-73
2023/02/19 04:33:19;;;;;;;6.05;3.58;;;;;;;8.04;90.95;96498.78;5048377;28;20041;-73
2023/02/19 04:35:46;;;;;;;5.50;2.88;;;;;;;8.02;91.00;96492.03;5049215;28;20052;-73
2023/02/19 04:38:13;;;;;;;4.68;3.10;;;;;;;8.08;90.40;96499.78;5048441;28;20052;-74
2023/02/19 04:40:40;;;;;;;5.30;2.90;;;;;;;8.07;90.09;96492.75;5049227;28;20044;-73
2023/02/19 04:43:06;;;;;;;5.45;3.70;;;;;;;8.07;90.35;96498.19;5048885;28;20499;-73
2023/02/19 04:45:33;;;;;;;4.60;2.70;;;;;;;8.07;90.43;96514.47;5049430;28;20049;-73
2023/02/19 04:47:59;;;;;;;4.95;2.97;;;;;;;8.07;89.91;96514.47;5049254;28;20037;-72
2023/02/19 04:50:25;;;;;;;5.88;2.63;;;;;;;8.08;89.92;96502.50;5048816;28;20094;-73
2023/02/19 04:52:53;;;;;;;5.50;3.30;;;;;;;8.08;89.84;96496.28;5049141;28;20064;-73
2023/02/19 04:55:20;;;;;;;5.45;3.42;;;;;;;8.02;90.83;96506.41;5052675;28;20049;-73
2023/02/19 04:57:46;;;;;;;5.60;3.30;;;;;;;7.92;91.70;96512.00;5052956;28;20045;-73
2023/02/19 05:00:13;;;;;;;6.20;3.22;;;;;;;7.81;92.85;96513.28;5052592;28;20056;-72
2023/02/19 05:02:40;;;;;;;6.55;3.53;;;;;;;7.82;92.59;96528.44;5052773;28;20049;-73
2023/02/19 05:05:07;;;;;;;4.40;2.85;;;;;;;7.81;92.42;96518.69;5051966;28;20045;-73
2023/02/19 05:07:33;;;;;;;4.50;2.78;;;;;;;7.82;92.31;96517.59;5052706;28;20048;-73
2023/02/19 05:10:01;;;;;;;5.28;3.35;;;;;;;7.93;90.66;96513.59;5052598;28;20045;-73
2023/02/19 05:12:29;;;;;;;4.30;2.63;;;;;;;7.92;91.08;96514.72;5052667;28;20492;-73
2023/02/19 05:14:55;;;;;;;5.00;2.58;;;;;;;7.90;91.51;96513.41;5052547;28;20061;-73
2023/02/19 05:17:22;;;;;;;6.43;3.03;;;;;;;7.96;89.85;96507.59;5051862;28;20056;-73
2023/02/19 05:19:48;;;;;;;5.53;2.90;;;;;;;7.97;90.36;96520.06;5052789;28;20045;-73
2023/02/19 05:22:15;;;;;;;4.88;2.70;;;;;;;7.94;90.70;96519.84;5052366;28;20041;-72
2023/02/19 05:24:41;;;;;;;5.25;2.70;;;;;;;7.98;89.73;96521.66;5052966;28;20049;-72
2023/02/19 05:27:09;;;;;;;3.63;2.10;;;;;;;7.97;90.36;96522.75;5052867;28;20514;-73
2023/02/19 05:29:36;;;;;;;4.65;2.58;;;;;;;7.97;90.12;96524.66;5054208;28;20049;-73
2023/02/19 05:32:02;;;;;;;4.50;2.50;;;;;;;7.98;90.58;96537.13;5053697;28;20056;-73
2023/02/19 05:34:28;;;;;;;3.00;1.90;;;;;;;8.00;89.25;96532.22;5054357;28;20041;-73
2023/02/19 05:36:55;;;;;;;6.05;3.10;;;;;;;8.03;89.19;96540.56;5062704;28;20060;-73
2023/02/19 05:39:21;;;;;;;5.53;3.10;;;;;;;8.01;89.55;96537.34;5041287;28;20053;-73
2023/02/19 05:41:48;;;;;;;4.97;2.63;;;;;;;7.98;89.97;96537.94;5050142;28;20041;-73
2023/02/19 05:44:16;;;;;;;4.68;2.92;;;;;;;7.98;89.52;96537.13;5059325;28;20053;-73
2023/02/19 05:46:42;;;;;;;3.53;2.50;;;;;;;7.95;90.13;96538.53;5059985;28;20037;-72
2023/02/19 05:49:09;;;;;;;4.28;2.80;;;;;;;7.94;90.25;96538.84;5059355;28;20040;-74
2023/02/19 05:51:35;;;;;;;5.40;2.85;;;;;;;7.97;89.87;96544.47;5054576;28;20045;-73
2023/02/19 05:54:01;;;;;;;4.53;2.53;;;;;;;7.98;89.87;96548.78;5051341;28;20048;-75
2023/02/19 05:56:32;;;;;;;5.85;3.45;;;;;;;7.98;89.69;96551.47;5051942;28;20064;-72
2023/02/19 05:59:00;;;;;;;4.93;3.05;;;;;;;8.03;88.99;96553.31;5051829;28;20419;-73
2023/02/19 06:01:29;;;;;;;5.35;3.10;;;;;;;8.03;88.90;96550.59;5051260;28;20052;-73
2023/02/19 06:03:55;;;;;;;5.63;3.17;;;;;;;8.05;88.67;96562.78;5051078;28;20120;-72
2023/02/19 06:06:22;;;;;;;4.40;2.65;;;;;;;8.03;89.16;96551.41;5051103;28;20523;-74
2023/02/19 06:08:50;;;;;;;4.88;2.97;;;;;;;8.03;89.09;96556.81;5051626;28;20052;-73
2023/02/19 06:11:16;;;;;;;5.05;3.00;;;;;;;8.01;89.23;96555.53;5051282;28;20044;-73
2023/02/19 06:13:43;;;;;;;6.50;3.33;;;;;;;7.99;89.46;96561.25;5051072;28;20045;-73
2023/02/19 06:16:11;;;;;;;5.10;3.15;;;;;;;7.98;89.55;96554.19;5051211;28;20045;-73
2023/02/19 06:18:40;;;;;;;5.30;3.10;;;;;;;7.99;89.46;96555.81;5051539;28;20045;-73
2023/02/19 06:21:08;;;;;;;5.20;2.90;;;;;;;7.99;89.29;96550.41;5051072;28;20079;-73
2023/02/19 06:23:35;;;;;;;5.22;2.95;;;;;;;8.03;89.45;96556.03;5050862;28;20416;-73
2023/02/19 06:26:10;;;;;;;4.15;2.65;;;;;;;8.01;89.21;96567.19;5051202;28;20047;-75
2023/02/19 06:28:36;;;;;;;4.72;3.10;;;;;;;8.02;89.16;96563.34;5051162;28;20048;-73
2023/02/19 06:31:03;;;;;;;4.75;2.83;;;;;;;8.07;88.21;96568.69;5051967;28;20072;-74
2023/02/19 06:33:30;;;;;;;4.25;2.80;;;;;;;8.06;88.54;96572.50;5051808;28;20049;-73
2023/02/19 06:36:00;;;;;;;5.95;3.00;;;;;;;8.07;88.04;96574.13;5051777;28;20048;-73
2023/02/19 06:38:27;;;;;;;5.47;3.03;;;;;;;8.11;88.31;96577.84;5051166;28;20045;-73
2023/02/19 06:40:53;;;;;;;6.10;3.10;;;;;;;8.13;87.37;96576.75;5051858;28;20463;-73
2023/02/19 06:43:20;;;;;;;5.50;3.42;;;;;;;8.14;86.74;96573.72;5050354;28;20049;-73
2023/02/19 06:45:46;;;;;;;6.28;3.38;;;;;;;8.16;87.53;96592.44;5048639;28;20044;-73
2023/02/19 06:48:13;;;;;;;6.70;3.70;;;;;;;8.16;86.90;96592.44;5047240;28;20461;-74
2023/02/19 06:50:39;;;;;;;6.13;3.35;;;;;;;8.20;87.10;96604.31;5047844;28;20071;-74
2023/02/19 06:53:10;;;;;;;5.60;3.30;;;;;;;8.25;86.95;96606.94;5046871;28;20048;-74
2023/02/19 06:55:37;;;;;;;6.13;3.30;;;;;;;8.25;87.02;96615.09;5047317;28;20059;-73
2023/02/19 06:58:03;;;;;;;6.07;3.50;;;;;;;8.20;87.00;96607.84;5047179;28;20053;-75
2023/02/19 07:00:29;;;;;;;6.18;3.50;;;;;;;8.18;87.40;96615.44;5047305;28;20045;-73
2023/02/19 07:02:56;;;;;;;7.47;4.32;;;;;;;8.20;87.33;96620.59;5047237;28;20072;-73
2023/02/19 07:05:23;;;;;;;5.40;3.53;;;;;;;8.24;87.21;96624.31;5046755;28;20052;-73
2023/02/19 07:07:49;;;;;;;5.20;3.50;;;;;;;8.21;87.55;96627.63;5046544;28;20127;-74
2023/02/19 07:10:17;;;;;;;6.85;3.70;;;;;;;8.20;87.47;96617.88;5046505;28;20056;-74
2023/02/19 07:12:44;;;;;;;5.22;3.20;;;;;;;8.13;88.84;96631.81;5047136;28;20111;-73
2023/02/19 07:15:11;;;;;;;7.88;4.00;;;;;;;8.07;89.18;96641.94;5045122;28;20056;-73
2023/02/19 07:17:37;;;;;;;4.70;3.10;;;;;;;8.06;89.40;96648.47;5047037;28;20041;-74
2023/02/19 07:20:04;;;;;;;8.27;4.47;;;;;;;7.90;92.16;96649.78;5046401;28;20425;-73
2023/02/19 07:22:31;;;;;;;7.63;4.07;;;;;;;7.65;96.16;96648.22;5046728;28;20575;-74
2023/02/19 07:24:57;;;;;;;7.93;5.05;;;;;;;7.53;97.25;96651.38;5046283;28;20053;-73
2023/02/19 07:27:25;;;;;;;7.15;3.53;;;;;;;7.56;95.38;96667.03;5046326;28;20045;-73
2023/02/19 07:29:51;;;;;;;5.95;3.53;;;;;;;7.50;95.88;96662.78;5047398;28;20061;-74
2023/02/19 07:32:18;;;;;;;8.55;4.95;;;;;;;7.57;95.36;96674.09;5045874;28;20106;-73
2023/02/19 07:34:44;;;;;;;6.57;3.88;;;;;;;7.59;96.14;96679.22;5045957;28;20052;-74
2023/02/19 07:37:11;;;;;;;6.43;4.40;;;;;;;7.54;97.06;96690.91;5045912;28;20048;-73
2023/02/19 07:39:37;;;;;;;6.10;3.83;;;;;;;7.54;97.67;96688.22;5046989;28;20045;-74
2023/02/19 07:42:04;;;;;;;6.82;4.05;;;;;;;7.50;98.92;96689.88;5046189;28;20102;-73
2023/02/19 07:44:32;;;;;;;7.28;4.47;;;;;;;7.48;99.77;96712.97;5046368;28;20059;-74
2023/02/19 07:46:58;;;;;;;8.10;4.35;;;;;;;7.47;99.38;96700.50;5046396;28;20059;-73
2023/02/19 07:49:25;;;;;;;9.55;4.80;;;;;;;7.47;99.59;96705.94;5046008;28;20061;-74
2023/02/19 07:51:51;;;;;;;6.13;4.18;;;;;;;7.51;99.61;96707.75;5046623;28;20040;-74
2023/02/19 07:54:17;;;;;;;8.27;4.72;;;;;;;7.56;99.87;96710.41;5045766;28;20049;-73
2023/02/19 07:56:44;;;;;;;6.50;3.80;;;;;;;7.62;98.46;96721.19;5046763;28;20542;-74
2023/02/19 07:59:10;;;;;;;6.35;4.22;;;;;;;7.61;98.69;96727.69;5045505;28;20049;-74
2023/02/19 08:04:22;;;;;;;5.93;3.58;;;;;;;7.57;97.12;96727.50;5038411;28;20071;-74
2023/02/19 08:06:49;;;;;;;6.60;3.83;;;;;;;7.54;98.21;96739.69;5046364;28;20052;-74
2023/02/19 08:09:15;;;;;;;7.15;3.95;;;;;;;7.53;99.90;96727.25;5046007;28;20111;-74
2023/02/19 08:14:27;;;;;;;6.75;4.80;;;;;;;7.18;100.00;96730.34;5046180;28;20060;-73
2023/02/19 08:16:55;;;;;;;10.68;5.45;;;;;;;7.05;100.00;96732.66;5046335;28;20045;-74
2023/02/19 08:19:22;;;;;;;7.93;5.68;;;;;;;7.04;100.00;96741.84;5046156;28;20057;-74
2023/02/19 08:21:49;;;;;;;8.85;5.32;;;;;;;7.01;100.00;96742.44;5046094;28;20508;-73
2023/02/19 08:24:16;;;;;;;10.65;5.70;;;;;;;7.09;100.00;96751.00;5045619;28;20056;-74
2023/02/19 08:26:42;;;;;;;8.07;5.18;;;;;;;7.10;100.00;96760.75;5045990;28;20110;-74
2023/02/19 08:29:09;;;;;;;8.90;5.50;;;;;;;7.14;100.00;96746.34;5049577;28;20067;-74
2023/02/19 08:31:37;;;;;;;7.85;4.35;;;;;;;7.12;100.00;96753.16;5050918;28;20045;-74
2023/02/19 08:34:05;;;;;;;11.25;5.68;;;;;;;7.10;100.00;96755.34;5052902;28;20544;-74
2023/02/19 08:36:31;;;;;;;9.13;4.30;;;;;;;7.10;100.00;96755.34;5053707;28;20063;-74
2023/02/19 08:38:57;;;;;;;6.35;4.60;;;;;;;7.15;100.00;96753.41;5051604;28;20060;-74
2023/02/19 08:41:24;;;;;;;10.50;5.15;;;;;;;7.13;100.00;96776.44;5049907;28;20049;-74
2023/02/19 08:43:51;;;;;;;7.78;4.32;;;;;;;6.96;100.00;96777.69;5050177;28;20049;-74
2023/02/19 08:46:17;;;;;;;11.95;3.15;;;;;;;6.82;100.00;96763.16;5049564;28;20467;-74
2023/02/19 08:48:44;;;;;;;8.73;3.40;;;;;;;6.69;100.00;96751.09;5049914;28;20044;-74
2023/02/19 08:51:11;;;;;;;5.30;1.90;;;;;;;6.62;100.00;96766.84;5049675;28;20049;-74
2023/02/19 08:53:39;;;;;;;4.65;2.08;;;;;;;6.57;100.00;96757.97;5050048;28;20049;-74
2023/02/19 08:56:07;;;;;;;10.48;2.47;;;;;;;6.46;100.00;96736.38;5049625;28;20067;-74
2023/02/19 08:58:34;;;;;;;4.03;1.50;;;;;;;6.36;100.00;96752.69;5049959;28;20686;-74
2023/02/19 09:01:01;;;;;;;4.70;1.83;;;;;;;6.33;100.00;96774.09;5049916;28;20049;-74
2023/02/19 09:03:28;;;;;;;6.45;2.25;;;;;;;6.32;100.00;96776.00;5049174;28;20518;-74
2023/02/19 09:05:54;;;;;;;3.67;1.30;;;;;;;6.37;99.61;96778.69;5050375;28;20053;-75
2023/02/19 09:08:22;;;;;;;6.53;1.90;;;;;;;6.58;96.64;96771.22;5049459;28;20500;-74
2023/02/19 09:10:57;;;;;;;5.80;1.88;;;;;;;6.68;95.32;96775.72;5049875;28;20061;-73
2023/02/19 09:13:24;;;;;;;1.17;0.95;;;;;;;6.78;95.22;96770.22;5049152;28;20055;-74
2023/02/19 09:15:50;;;;;;;1.73;1.00;;;;;;;6.80;94.92;96770.78;5049626;28;20055;-74
2023/02/19 09:18:17;;;;;;;1.08;0.88;;;;;;;6.99;93.33;96771.66;5049914;28;20079;-74
2023/02/19 09:20:43;;;;;;;1.08;0.60;;;;;;;7.35;92.20;96762.41;5052371;28;20103;-74
2023/02/19 09:23:10;;;;;;;1.55;0.75;;;;;;;7.28;91.42;96770.88;5051794;28;20048;-74
2023/02/19 09:25:37;;;;;;;0.85;0.60;;;;;;;7.28;93.81;96770.88;5052430;28;20045;-74
2023/02/19 09:28:04;;;;;;;1.00;0.60;;;;;;;7.30;93.34;96771.38;5050591;28;20048;-74
2023/02/19 09:30:31;;;;;;;0.75;0.52;;;;;;;7.35;92.97;96762.41;5050827;28;20083;-73
2023/02/19 09:32:57;;;;;;;2.33;1.05;;;;;;;7.47;92.18;96750.09;5050923;28;20499;-74
2023/02/19 09:35:24;;;;;;;1.52;1.00;;;;;;;7.53;90.80;96761.69;5050485;28;20515;-74
2023/02/19 09:37:50;;;;;;;2.50;1.60;;;;;;;7.52;92.95;96760.88;5053833;28;20048;-74
2023/02/19 09:40:20;;;;;;;2.00;1.38;;;;;;;7.65;93.31;96761.25;5055202;28;20150;-74
2023/02/19 09:42:50;;;;;;;4.10;1.17;;;;;;;7.88;94.00;96760.41;5057925;28;20179;-74
2023/02/19 09:45:22;;;;;;;1.52;1.13;;;;;;;8.24;91.67;96762.66;5053865;28;20504;-74
2023/02/19 09:47:52;;;;;;;1.05;0.90;;;;;;;8.41;90.91;96773.88;5054733;28;20504;-74
2023/02/19 09:50:22;;;;;;;1.98;1.23;;;;;;;8.40;89.11;96783.09;5055479;28;20045;-74
2023/02/19 09:52:52;;;;;;;1.60;1.20;;;;;;;8.46;88.15;96765.66;5055366;28;20045;-74
2023/02/19 09:55:29;;;;;;;1.35;1.10;;;;;;;8.88;86.62;96761.19;5053420;28;20049;-77
2023/02/19 09:57:58;;;;;;;1.52;1.10;;;;;;;8.93;83.63;96782.84;5053316;28;20084;-74
2023/02/19 10:00:27;;;;;;;1.60;1.20;;;;;;;8.98;83.14;96777.31;5053939;28;20068;-74
2023/02/19 10:02:59;;;;;;;3.45;1.83;;;;;;;9.24;82.83;96785.03;5049290;28;20040;-75
2023/02/19 10:05:26;;;;;;;3.22;1.92;;;;;;;9.43;79.87;96783.06;5048838;28;20535;-74
2023/02/19 10:07:54;;;;;;;2.63;1.60;;;;;;;9.28;77.76;96778.69;5051815;28;20060;-75
2023/02/19 10:10:31;;;;;;;1.23;1.02;;;;;;;9.32;79.72;96781.63;5051892;28;20057;-75
2023/02/19 10:13:14;;;;;;;3.30;1.95;;;;;;;9.10;77.93;96793.97;5048905;28;20103;-75
2023/02/19 10:15:46;;;;;;;2.13;1.38;;;;;;;8.98;76.28;96801.78;5048121;28;20063;-75
2023/02/19 10:18:16;;;;;;;2.67;1.63;;;;;;;9.04;76.54;96803.31;5047901;28;20515;-74
2023/02/19 10:20:43;;;;;;;2.15;1.30;;;;;;;8.94;77.94;96792.59;5048526;28;20051;-73
2023/02/19 10:23:14;;;;;;;3.13;2.20;;;;;;;9.09;78.52;96792.34;5047688;28;20102;-74
2023/02/19 10:25:45;;;;;;;2.97;1.70;;;;;;;8.97;77.00;96797.41;5047974;28;20060;-74
2023/02/19 10:28:16;;;;;;;5.45;2.33;;;;;;;9.13;76.28;96806.97;5047551;28;20048;-74
2023/02/19 10:30:43;;;;;;;4.32;1.90;;;;;;;9.09;74.51;96805.94;5048508;28;20055;-74
2023/02/19 10:33:12;;;;;;;5.18;3.05;;;;;;;9.05;72.59;96799.47;5046937;28;20080;-74
2023/02/19 10:35:52;;;;;;;5.55;1.70;;;;;;;9.21;70.40;96819.03;5047703;28;20049;-74
2023/02/19 10:38:22;;;;;;;4.93;2.30;;;;;;;9.32;71.25;96811.53;5047825;28;20064;-74
2023/02/19 10:40:52;;;;;;;4.25;2.00;;;;;;;9.38;72.50;96823.91;5048255;28;20051;-74
2023/02/19 10:43:30;;;;;;;4.70;2.25;;;;;;;9.93;72.67;96824.00;5046996;28;20044;-74
2023/02/19 10:45:58;;;;;;;3.05;1.38;;;;;;;9.58;67.22;96825.47;5047677;28;20476;-74
2023/02/19 10:48:29;;;;;;;3.88;1.50;;;;;;;9.63;69.10;96820.75;5046920;28;20293;-74
2023/02/19 10:51:03;;;;;;;6.63;2.15;;;;;;;9.46;71.01;96815.09;5046268;28;20087;-74
2023/02/19 10:53:42;;;;;;;6.82;1.95;;;;;;;9.39;73.13;96820.09;5047108;28;20646;-74
2023/02/19 10:56:11;;;;;;;13.57;4.10;;;;;;;9.45;70.59;96827.06;5044468;28;20056;-74
2023/02/19 10:58:41;;;;;;;17.48;2.30;;;;;;;9.45;73.12;96827.06;5041886;28;20041;-73
2023/02/19 11:01:18;;;;;;;33.13;3.47;;;;;;;9.50;73.46;96835.13;5047293;28;20060;-74
2023/02/19 11:03:45;;;;;;;18.42;2.10;;;;;;;9.36;67.40;96847.88;5047700;28;20075;-73
2023/02/19 11:06:14;;;;;;;31.88;3.30;;;;;;;9.38;69.15;96830.16;5047462;28;20052;-74
2023/02/19 11:08:52;;;;;;;26.15;2.97;;;;;;;9.34;67.25;96836.47;5047934;28;20049;-74
2023/02/19 11:11:32;;;;;;;27.42;3.15;;;;;;;9.38;67.45;96824.72;5047432;28;20072;-73
2023/02/19 11:14:03;;;;;;;46.45;3.38;;;;;;;9.44;69.00;96825.44;5047722;28;20053;-74
2023/02/19 11:16:45;;;;;;;26.23;2.60;;;;;;;9.85;68.05;96801.00;5047535;28;20045;-74
2023/02/19 11:19:24;;;;;;;34.72;3.35;;;;;;;9.94;67.66;96820.97;5047338;28;20064;-74
2023/02/19 11:21:51;;;;;;;33.97;3.42;;;;;;;9.92;66.01;96827.84;5047860;28;20057;-73
2023/02/19 11:24:28;;;;;;;39.70;3.92;;;;;;;9.83;65.10;96845.94;5045947;28;20049;-74
2023/02/19 11:26:56;;;;;;;21.83;2.42;;;;;;;9.71;65.33;96837.47;5047625;28;20052;-74
2023/02/19 11:29:27;;;;;;;25.13;2.50;;;;;;;9.56;64.46;96822.25;5047240;28;20044;-74
2023/02/19 11:31:54;;;;;;;26.48;2.42;;;;;;;9.59;64.51;96814.28;5047514;28;20049;-74
2023/02/19 11:34:29;;;;;;;36.47;3.83;;;;;;;9.57;64.92;96805.63;5046925;28;20049;-74
2023/02/19 11:37:08;;;;;;;24.73;2.42;;;;;;;9.66;64.18;96814.72;5048522;28;20114;-74
2023/02/19 11:39:35;;;;;;;26.65;2.53;;;;;;;9.75;62.62;96822.97;5048556;28;20053;-74
2023/02/19 11:42:26;;;;;;;25.30;2.42;;;;;;;9.66;63.50;96828.31;5047010;28;20571;-75
2023/02/19 11:45:11;;;;;;;28.80;2.70;;;;;;;9.58;63.21;96837.16;5043827;28;20041;-74
2023/02/19 11:48:01;;;;;;;21.60;2.33;;;;;;;9.55;65.09;96824.16;5046118;28;20071;-74
2023/02/19 11:50:41;;;;;;;30.00;2.60;;;;;;;9.40;66.18;96832.59;5038903;28;20044;-74
2023/02/19 11:53:18;;;;;;;48.60;4.20;;;;;;;9.33;67.58;96837.59;5028949;28;20484;-74
2023/02/19 11:55:57;;;;;;;26.48;2.08;;;;;;;9.21;68.46;96842.69;5040594;28;20041;-74
2023/02/19 11:58:51;;;;;;;34.90;2.90;;;;;;;9.04;69.37;96841.34;5045928;28;20059;-73
2023/02/19 12:01:27;;;;;;;32.10;3.15;;;;;;;8.94;71.77;96835.25;5045523;28;20491;-73
2023/02/19 12:04:29;;;;;;;26.08;2.30;;;;;;;9.09;72.13;96833.09;5046133;28;20044;-73
2023/02/19 12:07:09;;;;;;;32.00;2.70;;;;;;;9.06;70.91;96806.50;5045626;28;20049;-74
2023/02/19 12:09:51;;;;;;;42.33;3.30;;;;;;;9.32;69.94;96820.47;5045811;28;20048;-73
2023/02/19 12:12:41;;;;;;;35.70;2.93;;;;;;;9.46;68.60;96831.41;5045398;28;20048;-74
2023/02/19 12:15:35;;;;;;;33.75;2.90;;;;;;;9.38;68.56;96834.78;5045078;28;20424;-74
2023/02/19 12:18:24;;;;;;;38.55;3.10;;;;;;;9.26;70.19;96826.31;5045821;28;20408;-74